Terminal Aerodrome Forecast
Issued by NWS

Current Version | Previous Version | Text Only | Print | Product List | Glossary On
Versions: 1 2 3 4 5 6 7 8 9 10 11 12 13 14 15 16 17 18
521
FTUS41 KBTV 161131
TAFSLK
TAF
KSLK 161131Z 1612/1712 23005KT P6SM SCT025
      TEMPO 1612/1613 BKN025
     FM161500 23009G17KT P6SM SKC
     FM162200 24006KT P6SM SKC
     FM170400 VRB02KT P6SM SKC=

USA.gov is the U.S. government's official web portal to all federal, state and local government web resources and services.